Tiempo atmosférico en la estación meteorológica de Las Palmas de Gran Canaria, San Cristobal, Las Palmas (55 m.)



Fecha
DESCASC
Temp. máxima en grados centígrados (hora)
DESCASC
Temp. mínima en grados centígrados (hora)
DESCASC
Temp. media en grados centígrados
DESCASC
Racha de viento máxima en m/sg (hora)
DESCASC
Velocidad máxima media en intervalos de 10 minutos(hora)
DESCASC
Precipitaciones diarias en mm
DESCASC
Precipitaciones de 00:00 a 06:00 en mm
DESCASC
Precipitaciones de 06:00 a 12:00 en mm
DESCASC
Precipitaciones de 12:00 a 18:00 en mm
DESCASC
Precipitaciones de 18:00 a 24:00 en mm
DESCASC
18-04-2019 20.6 (14:50) 17.3 (23:20) 18.9 13.33 (17:00) 7.78 (16:40) 0 0 0 0 0
17-04-2019 24.9 (12:20) 17 (22:20) 20.9 13.33 (18:50) 7.78 (19:40) 0.5 0 0.2 0 0.3
16-04-2019 24.6 (14:10) 17.6 (00:00) 21.1 10.83 (23:10) 6.11 (23:40) 0 0 0 0 0
15-04-2019 24.6 (15:30) 17.8 (00:00) 21.2 11.11 (05:40) 6.94 (05:40) 0 0 0 0 0
14-04-2019 21.4 (14:20) 16.2 (00:00) 18.8 13.06 (19:40) 6.94 (17:20) 0 0 0 0 0
13-04-2019 21.3 (13:20) 17.2 (00:00) 19.3 10.83 (19:20) 6.39 (19:20) 0 0 0 0 0
12-04-2019 20.6 (13:10) 16.3 (00:00) 18.4 10.56 (12:30) 6.67 (18:30) 0 0 0 0 0
11-04-2019 20.4 (16:30) 16.5 (00:00) 18.4 18.06 (06:30) 7.22 (17:50) 0 0 0 0 0
10-04-2019 20.7 (12:40) 16.8 (00:00) 18.8 11.11 (16:10) 7.22 (16:10) 0 0 0 0 0
09-04-2019 22.5 (10:30) 17 (00:00) 19.8 9.17 (14:10) 5.28 (12:30) 0 0 0 0 0
08-04-2019 22 (12:00) 14.9 (00:00) 18.4 11.11 (08:50) 6.11 (08:50) 0.2 0 0.2 0 0
07-04-2019 20.8 (13:30) 15.6 (00:00) 18.2 11.67 (15:10) 6.94 (16:00) 0 0 0 0 0
06-04-2019 19.9 (17:30) 16.4 (00:00) 18.1 15.28 (14:00) 7.78 (19:20) 0 0 0 0 0
05-04-2019 20.5 (15:20) 14.6 (00:00) 17.6 15.56 (15:30) 8.89 (14:40) 0.1 0.1 0 0 0
04-04-2019 20.1 (14:50) 14.3 (00:00) 17.2 11.94 (15:10) 7.5 (15:20) 1.5 0.9 0.6 0 0
03-04-2019 20.7 (18:20) 15.5 (00:00) 18.1 11.94 (23:00) 8.06 (23:00) 9.4 0.3 4.1 5 0
02-04-2019 25.3 (13:40) 16.9 (00:00) 21.1 11.11 (18:20) 7.22 (17:50) 0 0 0 0 0
01-04-2019 22.3 (16:00) 16.1 (00:00) 19.2 5.83 (05:20) 3.61 (05:30) 0 0 0 0 0
31-03-2019 25.3 (14:10) 15.7 (00:00) 20.5 7.5 (17:50) 4.17 (18:50) 0 0 0 0 0
30-03-2019 22.2 (15:00) 13.8 (00:00) 18 13.33 (19:30) 5.28 (08:20) 0.7 0 0.7 0 0
29-03-2019 24.2 (10:10) 15.9 (00:00) 20.1 7.78 (22:40) 4.44 (22:30) 0.1 0 0 0.1 0
28-03-2019 21.2 (09:10) 16.1 (00:00) 18.7 5 (17:50) 3.61 (04:20) 0.2 0 0 0 0.2
27-03-2019 21.7 (13:20) 17.3 (00:00) 19.5 9.17 (09:30) 5.83 (09:20) 0 0 0 0 0
26-03-2019 22.6 (15:50) 15.2 (00:00) 18.9 9.17 (10:10) 5.56 (10:10) 1.1 0 1.1 0 0
25-03-2019 24.8 (11:30) 15.4 (00:00) 20.1 11.67 (19:00) 10 (18:50) 3.4 0 0 3.4 0
24-03-2019 21.3 (11:50) 15.7 (00:00) 18.5 6.94 (11:10) 4.17 (12:20) 0 0 0 0 0
23-03-2019 19.9 (14:00) 16.8 (00:00) 18.3 11.11 (11:00) 6.67 (20:40) 0 0 0 0 0
22-03-2019 20.5 (14:30) 16.3 (00:00) 18.4 10.83 (17:50) 6.94 (19:30) 0 0 0 0 0
21-03-2019 21.7 (14:10) 17 (00:00) 19.4 8.33 (18:20) 5 (18:20) 0 0 0 0 0

Gráficas

Temp. máximas Temp. mínimas Temp. medias Precipitaciones Rachas de viento máximas Velocidades máximas media en intervalos de 10 minutos

Datos horarios

Fecha y hora oficial Temperatura (ºC) Velocidad del viento (km/h) Dirección del viento Racha (km/h) Dirección de racha Precipitación (mm) Presión (hPa) Tendencia (hPa) Humedad (%)
2019-04-19 23:00:00 17.2 26 Noroeste 48 Noroeste 0 -- -- 65
2019-04-19 22:00:00 17.2 25 Noroeste 46 Noroeste 0 -- -- 65
2019-04-19 21:00:00 17.3 25 Noroeste 41 Noroeste 0 -- -- 65
2019-04-19 20:00:00 17.5 19 Noroeste 49 Noroeste 0 -- -- 64
2019-04-19 19:00:00 17.7 23 Noroeste 41 Noroeste 0 -- -- 63
2019-04-19 18:00:00 17.8 29 Norte 42 Norte 0 -- -- 63
2019-04-19 17:00:00 18.4 25 Noroeste 41 Noroeste 0 -- -- 64
2019-04-19 16:00:00 19.5 23 Noroeste 39 Noroeste 0 -- -- 62
2019-04-19 15:00:00 18.1 18 Norte 36 Norte 0 -- -- 64
2019-04-19 14:00:00 18.3 21 Noroeste 37 Oeste 0 -- -- 65
2019-04-19 13:00:00 18.5 18 Noroeste 35 Noroeste 0 -- -- 64
2019-04-19 12:00:00 18.7 18 Noroeste 36 Noroeste 0 -- -- 58
2019-04-19 11:00:00 17.6 20 Noroeste 37 Noroeste 0 -- -- 65
2019-04-19 10:00:00 19 23 Norte 37 Norte 0 -- -- 59
2019-04-19 09:00:00 17.4 24 Norte 41 Norte 0 -- -- 62
2019-04-19 08:00:00 16.9 18 Noroeste 38 Noroeste 0 -- -- 64
2019-04-19 07:00:00 17 19 Noroeste 37 Norte 0 -- -- 65
2019-04-19 06:00:00 17 23 Noroeste 42 Noroeste 0 -- -- 69
2019-04-19 05:00:00 17 21 Noroeste 35 Noroeste 0 -- -- 68
2019-04-19 04:00:00 17 22 Noroeste 47 Noroeste 0 -- -- 64
2019-04-19 03:00:00 17.2 21 Norte 38 Norte 0 -- -- 67
2019-04-19 02:00:00 17.4 22 Norte 45 Norte 0 -- -- 67
2019-04-19 01:00:00 17.4 28 Norte 42 Norte 0 -- -- 65
2019-04-19 00:00:00 17.4 19 Noroeste 36 Norte 0 -- -- 68
2019-04-18 23:00:00 17.6 18 Norte 37 Noroeste 0 -- -- 67
2019-04-18 22:00:00 17.7 16 Norte 34 Norte 0 -- -- 65
2019-04-18 21:00:00 17.9 22 Noroeste 39 Norte 0 -- -- 64
2019-04-18 20:00:00 19.2 18 Noroeste 40 Noroeste 0 -- -- 62
2019-04-18 19:00:00 18.7 21 Noroeste 40 Noroeste 0 -- -- 63
2019-04-18 18:00:00 20.5 17 Noroeste 39 Noroeste 0 -- -- 60
2019-04-18 17:00:00 18.6 21 Noroeste 48 Noroeste 0 -- -- 60
2019-04-18 16:00:00 18.5 23 Norte 40 Nordeste 0 -- -- 62
2019-04-18 15:00:00 18.8 15 Norte 35 Norte 0 -- -- 63
2019-04-18 14:00:00 18.8 19 Norte 37 Norte 0 -- -- 64
2019-04-18 13:00:00 18.4 19 Norte 35 Norte 0 -- -- 65
2019-04-18 12:00:00 19 18 Norte 34 Norte 0 -- -- 65
2019-04-18 11:00:00 18.4 19 Noroeste 36 Norte 0 -- -- 64
2019-04-18 10:00:00 18.3 20 Norte 36 Norte 0 -- -- 67
2019-04-18 09:00:00 17.9 23 Norte 35 Norte 0 -- -- 65
2019-04-18 08:00:00 17.5 20 Noroeste 34 Norte 0 -- -- 69
2019-04-18 07:00:00 17.4 13 Noroeste 31 Noroeste 0 -- -- 69
2019-04-18 06:00:00 17.6 18 Noroeste 33 Noroeste 0 -- -- 69
2019-04-18 05:00:00 17.5 18 Noroeste 31 Norte 0 -- -- 69
2019-04-18 04:00:00 17.6 13 Noroeste 35 Noroeste 0 -- -- 70
2019-04-18 03:00:00 17.9 19 Noroeste 31 Noroeste 0 -- -- 68
2019-04-18 02:00:00 17.9 18 Noroeste 37 Norte 0 -- -- 69
2019-04-18 01:00:00 18 18 Noroeste 37 Noroeste 0 -- -- 69
2019-04-18 00:00:00 18.1 19 Noroeste 35 Norte 0 -- -- 70
2019-04-17 23:00:00 18.2 21 Noroeste 33 Norte 0.3 -- -- 70
2019-04-17 22:00:00 18.3 12 Noroeste 32 Noroeste 0 -- -- 72
2019-04-17 21:00:00 18.4 12 Noroeste 35 Noroeste 0 -- -- 72
2019-04-17 20:00:00 18.5 23 Noroeste 44 Noroeste 0 -- -- 73
2019-04-17 19:00:00 18.6 18 Noroeste 48 Noroeste 0 -- -- 74
2019-04-17 18:00:00 18.4 22 Noroeste 46 Noroeste 0 -- -- 70
2019-04-17 17:00:00 19.6 27 Noroeste 42 Noroeste 0 -- -- 72
2019-04-17 16:00:00 18.3 18 Noroeste 32 Noroeste 0 -- -- 77
2019-04-17 15:00:00 19.1 19 Noroeste 35 Norte 0 -- -- 75
2019-04-17 14:00:00 20.1 15 Noroeste 34 Norte 0 -- -- 69
2019-04-17 13:00:00 21.4 8 Este 15 Nordeste 0 -- -- 63
2019-04-17 12:00:00 24.3 7 Este 18 Nordeste -- -- -- 62
2019-04-17 11:00:00 20.7 9 Norte 20 Noroeste -- -- -- 63
2019-04-17 10:00:00 21.4 6 Noroeste 15 Noroeste 0 -- -- 62
2019-04-17 09:00:00 19.1 4 Oeste 14 Oeste 0 -- -- 70
2019-04-17 08:00:00 17.8 5 Sudoeste 12 Noroeste 0 -- -- 73
2019-04-17 07:00:00 18.1 9 Noroeste 17 Noroeste 0 -- -- 73
2019-04-17 06:00:00 18.1 8 Noroeste 23 Noroeste 0 -- -- 73
2019-04-17 05:00:00 18.3 16 Noroeste 29 Noroeste 0 -- -- 72
2019-04-17 04:00:00 18.3 15 Noroeste 29 Noroeste 0 -- -- 73
2019-04-17 03:00:00 18.4 10 Noroeste 24 Noroeste 0 -- -- 72
2019-04-17 02:00:00 18.7 14 Noroeste 27 Noroeste 0 -- -- 72
2019-04-17 01:00:00 18.9 13 Noroeste 29 Noroeste 0 -- -- 72
2019-04-17 00:00:00 18.9 18 Noroeste -- -- -- -- -- 74
2019-04-16 23:00:00 20.4 22 Noroeste 35 Noroeste 0 -- -- 73
2019-04-16 22:00:00 19 21 Noroeste 34 Noroeste 0 -- -- 73
2019-04-16 21:00:00 20.4 15 Noroeste 22 Noroeste 0 -- -- 72
2019-04-16 20:00:00 20 5 Noroeste 19 Norte 0 -- -- 67
2019-04-16 19:00:00 21.2 6 Este 19 Nordeste 0 -- -- 69
2019-04-16 18:00:00 20.9 12 Nordeste 25 Nordeste 0 -- -- 70
2019-04-16 17:00:00 21.4 10 Nordeste 26 Nordeste 0 -- -- 68
2019-04-16 16:00:00 20.5 13 Nordeste 23 Nordeste 0 -- -- 69
2019-04-16 15:00:00 20.6 8 Este 13 Este 0 -- -- 68
2019-04-16 14:00:00 23.7 5 Sudeste 15 Este 0 -- -- 61
2019-04-16 13:00:00 22.6 7 Este 17 Este 0 -- -- 64
2019-04-16 12:00:00 19.3 10 Nordeste 17 Nordeste 0 -- -- 69
2019-04-16 11:00:00 20.5 10 Nordeste 16 Nordeste 0 -- -- 70
2019-04-16 10:00:00 20.2 7 Nordeste 14 Nordeste 0 -- -- 70
2019-04-16 09:00:00 19.1 5 Norte 12 Nordeste 0 -- -- 75
2019-04-16 08:00:00 17.8 8 Norte 15 Nordeste 0 -- -- 80
2019-04-16 07:00:00 17.8 5 Norte 20 Norte 0 -- -- 80
2019-04-16 06:00:00 18 9 Norte 22 Norte 0 -- -- 81
2019-04-16 05:00:00 18 10 Norte 19 Nordeste 0 -- -- 81
2019-04-16 04:00:00 18.2 5 Nordeste 13 Nordeste 0 -- -- 80
2019-04-16 03:00:00 18.4 7 Nordeste 15 Norte 0 -- -- 80
2019-04-16 02:00:00 18.3 7 Nordeste 14 Nordeste 0 -- -- 79
2019-04-16 01:00:00 18.4 7 Nordeste 16 Nordeste 0 -- -- 79
2019-04-16 00:00:00 18.6 8 Norte 14 Norte 0 -- -- 78
2019-04-15 23:00:00 18.6 8 Noroeste 16 Noroeste 0 -- -- 76
2019-04-15 22:00:00 19 9 Noroeste 19 Noroeste 0 -- -- 75
2019-04-15 21:00:00 20.6 11 Noroeste 19 Noroeste 0 -- -- 71
2019-04-15 20:00:00 19.4 8 Norte 17 Norte 0 -- -- 70
2019-04-15 19:00:00 23.3 4 Nordeste 20 Nordeste 0 -- -- 63
2019-04-15 18:00:00 22.9 5 Norte 20 Nordeste 0 -- -- 62
2019-04-15 17:00:00 23.5 5 Norte 18 Noroeste 0 -- -- 62
2019-04-15 16:00:00 22.5 3 Nordeste 12 Este 0 -- -- 62
2019-04-15 15:00:00 24.2 3 Este 17 Norte 0 -- -- 61
2019-04-15 14:00:00 22.8 4 Norte 17 Noroeste 0 -- -- 61
2019-04-15 13:00:00 21 5 Nordeste 20 Norte 0 -- -- 62
2019-04-15 12:00:00 20.8 8 Norte 19 Noroeste 0 -- -- 63
2019-04-15 11:00:00 21.6 5 Norte 18 Nordeste 0 -- -- 61
2019-04-15 10:00:00 19.3 13 Noroeste 26 Noroeste 0 -- -- 69
2019-04-15 09:00:00 18.5 17 Noroeste 31 Noroeste 0 -- -- 71
2019-04-15 08:00:00 18.1 14 Noroeste 35 Noroeste 0 -- -- 69
2019-04-15 07:00:00 17.9 21 Noroeste 37 Noroeste 0 -- -- 68
2019-04-15 06:00:00 18 20 Noroeste 40 Noroeste 0 -- -- 69
2019-04-15 05:00:00 18 19 Noroeste 37 Noroeste 0 -- -- 69
2019-04-15 04:00:00 18.2 18 Noroeste 39 Noroeste 0 -- -- 70
2019-04-15 03:00:00 18.2 22 Noroeste 38 Noroeste 0 -- -- 72
2019-04-15 02:00:00 18.1 21 Noroeste 34 Noroeste 0 -- -- 70
2019-04-15 01:00:00 18.2 18 Noroeste 32 Noroeste 0 -- -- 72
2019-04-15 00:00:00 18.3 21 Noroeste 31 Noroeste 0 -- -- 71
2019-04-14 23:00:00 18.5 19 Noroeste 33 Noroeste 0 -- -- 73
2019-04-14 22:00:00 18.5 16 Noroeste 35 Noroeste 0 -- -- 73
2019-04-14 21:00:00 18.4 22 Noroeste 39 Noroeste 0 -- -- 74
2019-04-14 20:00:00 18.6 22 Noroeste 47 Noroeste 0 -- -- 73
2019-04-14 19:00:00 18.6 24 Noroeste 41 Noroeste 0 -- -- 73
2019-04-14 18:00:00 19 22 Noroeste 42 Noroeste 0 -- -- 72
2019-04-14 17:00:00 19.1 20 Noroeste 36 Noroeste 0 -- -- 72
2019-04-14 16:00:00 19.6 15 Noroeste 31 Norte 0 -- -- 69
2019-04-14 15:00:00 19.9 22 Norte 33 Norte 0 -- -- 70
2019-04-14 14:00:00 20.7 14 Noroeste 30 Norte 0 -- -- 67
2019-04-14 13:00:00 18.5 16 Noroeste 30 Noroeste 0 -- -- 69
2019-04-14 12:00:00 19.3 14 Noroeste 23 Noroeste 0 -- -- 67
2019-04-14 11:00:00 19.7 8 Nordeste 21 Nordeste 0 -- -- 68
2019-04-14 10:00:00 18.3 8 Norte 13 Norte 0 -- -- 69
2019-04-14 09:00:00 17.9 5 Noroeste 14 Noroeste 0 -- -- 72
2019-04-14 08:00:00 16.7 11 Noroeste 17 Noroeste 0 -- -- 74
2019-04-14 07:00:00 16.7 10 Oeste 22 Oeste 0 -- -- 74
2019-04-14 06:00:00 16.6 14 Oeste 23 Noroeste 0 -- -- 74
2019-04-14 05:00:00 17.1 12 Noroeste 19 Oeste 0 -- -- 73
2019-04-14 04:00:00 17.2 12 Noroeste 21 Noroeste 0 -- -- 73
2019-04-14 03:00:00 17.3 12 Noroeste 21 Noroeste 0 -- -- 72
2019-04-14 02:00:00 17.6 11 Noroeste 21 Noroeste 0 -- -- 73
2019-04-14 01:00:00 17.5 14 Noroeste 22 Noroeste 0 -- -- 73
2019-04-14 00:00:00 17.6 14 Noroeste 23 Noroeste 0 -- -- 73
2019-04-13 23:00:00 17.8 11 Noroeste 22 Norte 0 -- -- 72
2019-04-13 22:00:00 18.1 14 Noroeste 28 Noroeste 0 -- -- 72
2019-04-13 21:00:00 18.1 15 Noroeste 32 Noroeste 0 -- -- 72
2019-04-13 20:00:00 18.2 13 Noroeste 39 Noroeste 0 -- -- 70
2019-04-13 19:00:00 18.5 20 Noroeste 33 Noroeste 0 -- -- 69
2019-04-13 18:00:00 18.6 18 Noroeste 36 Noroeste 0 -- -- 67
2019-04-13 17:00:00 19.3 13 Norte 30 Norte 0 -- -- 65
2019-04-13 16:00:00 19.3 10 Norte 28 Norte 0 -- -- 64
2019-04-13 15:00:00 19.2 14 Norte 28 Norte 0 -- -- 67
2019-04-13 14:00:00 19 17 Norte 32 Norte 0 -- -- 64
2019-04-13 13:00:00 18.7 17 Norte 34 Norte 0 -- -- 64
2019-04-13 12:00:00 18.6 18 Norte 33 Norte 0 -- -- 65
2019-04-13 11:00:00 18.7 13 Norte 29 Norte 0 -- -- 67
2019-04-13 10:00:00 18.6 15 Norte 27 Norte 0 -- -- 66
2019-04-13 09:00:00 17.5 15 Norte 26 Norte 0 -- -- 68
2019-04-13 08:00:00 17.4 12 Norte 31 Norte 0 -- -- 67
2019-04-13 07:00:00 17.3 17 Norte 28 Noroeste 0 -- -- 67
2019-04-13 06:00:00 17.5 14 Norte 32 Norte 0 -- -- 64
2019-04-13 05:00:00 17.5 15 Norte 33 Norte 0 -- -- 63
2019-04-13 04:00:00 17.4 14 Noroeste 24 Norte 0 -- -- 68
2019-04-13 03:00:00 17.3 15 Noroeste 31 Noroeste 0 -- -- 67
2019-04-13 02:00:00 17.3 14 Norte 31 Norte 0 -- -- 65
2019-04-13 01:00:00 17.4 19 Noroeste 30 Noroeste 0 -- -- 67
2019-04-13 00:00:00 17.3 21 Norte 33 Norte 0 -- -- 65
2019-04-12 23:00:00 17.6 12 Norte 33 Noroeste 0 -- -- 67
2019-04-12 22:00:00 17.4 18 Noroeste 31 Norte 0 -- -- 62
2019-04-12 21:00:00 17.4 19 Norte 35 Norte 0 -- -- 65
2019-04-12 20:00:00 17.4 22 Norte 37 Noroeste 0 -- -- 64
2019-04-12 19:00:00 18.1 17 Norte 36 Norte 0 -- -- 63
2019-04-12 18:00:00 19.5 17 Norte 35 Norte 0 -- -- 61
2019-04-12 17:00:00 18.8 17 Noroeste 37 Norte 0 -- -- 61
2019-04-12 16:00:00 18.5 17 Norte 32 Norte 0 -- -- 61
2019-04-12 15:00:00 18.1 18 Norte 33 Norte 0 -- -- 60
2019-04-12 14:00:00 18.3 17 Norte 31 Norte 0 -- -- 60
2019-04-12 13:00:00 20.5 15 Norte 38 Norte 0 -- -- 61
2019-04-12 12:00:00 18.1 15 Norte 32 Nordeste 0 -- -- 62
2019-04-12 11:00:00 18 9 Norte 30 Noroeste 0 -- -- 70
2019-04-12 10:00:00 18.9 17 Noroeste 34 Norte 0 -- -- 64
2019-04-12 09:00:00 17.3 18 Noroeste 32 Norte 0 -- -- 67
2019-04-12 08:00:00 17.1 17 Noroeste 27 Noroeste 0 -- -- 64
2019-04-12 07:00:00 17 18 Noroeste 32 Norte 0 -- -- 64
2019-04-12 06:00:00 17.1 20 Norte 33 Norte 0 -- -- 63
2019-04-12 05:00:00 17 17 Noroeste 31 Noroeste 0 -- -- 67
2019-04-12 04:00:00 17 13 Noroeste 32 Norte 0 -- -- 63
2019-04-12 03:00:00 17.1 15 Norte 36 Norte 0 -- -- 64
2019-04-12 02:00:00 17.1 23 Norte 37 Norte 0 -- -- 64
2019-04-12 01:00:00 17.3 17 Noroeste 31 Norte 0 -- -- 62
2019-04-12 00:00:00 17.3 15 Norte 40 Norte 0 -- -- 63
2019-04-11 23:00:00 17.5 26 Norte 38 Norte 0 -- -- 63
2019-04-11 22:00:00 17.5 19 Norte 41 Norte 0 -- -- 65
2019-04-11 21:00:00 17.6 18 Norte 36 Noroeste 0 -- -- 67
2019-04-11 20:00:00 17.7 21 Noroeste 38 Noroeste 0 -- -- 65
2019-04-11 19:00:00 18.8 25 Norte 40 Norte 0 -- -- 62
2019-04-11 18:00:00 18.6 20 Norte 46 Norte 0 -- -- 61
2019-04-11 17:00:00 18.1 23 Norte 38 Noroeste 0 -- -- 63
2019-04-11 16:00:00 18.3 17 Noroeste 38 Oeste 0 -- -- 67
2019-04-11 15:00:00 18.9 11 Noroeste 36 Noroeste 0 -- -- 62
2019-04-11 14:00:00 17.8 24 Noroeste 36 Noroeste 0 -- -- 63
2019-04-11 13:00:00 18 20 Noroeste 33 Noroeste 0 -- -- 61
2019-04-11 12:00:00 17.6 20 Norte 32 Noroeste 0 -- -- 62
2019-04-11 11:00:00 17.6 19 Norte 33 Norte 0 -- -- 61
2019-04-11 10:00:00 17.2 16 Noroeste 30 Norte 0 -- -- 62
2019-04-11 09:00:00 17 19 Noroeste 35 Norte 0 -- -- 62
2019-04-11 08:00:00 16.9 18 Norte 31 Norte 0 -- -- 63
2019-04-11 07:00:00 16.8 19 Norte 65 Nordeste 0 -- -- 63
2019-04-11 06:00:00 17.1 12 Noroeste 32 Norte 0 -- -- 62
2019-04-11 05:00:00 17.2 19 Norte 34 Noroeste 0 -- -- 62
2019-04-11 04:00:00 17.2 21 Noroeste 36 Norte 0 -- -- 64
2019-04-11 03:00:00 17.2 17 Noroeste 30 Norte 0 -- -- 63
2019-04-11 02:00:00 17 19 Noroeste 30 Norte 0 -- -- 64
2019-04-11 01:00:00 17.2 14 Norte 32 Norte 0 -- -- 63
2019-04-11 00:00:00 17.4 17 Norte 30 Noroeste 0 -- -- 64
2019-04-10 23:00:00 18.8 14 Noroeste 32 Norte 0 -- -- 64
2019-04-10 22:00:00 17.5 21 Norte 37 Noroeste 0 -- -- 67
2019-04-10 21:00:00 17.7 17 Noroeste 35 Noroeste 0 -- -- 65
2019-04-10 20:00:00 17.8 20 Norte 36 Norte 0 -- -- 64
2019-04-10 19:00:00 19.7 20 Norte 40 Norte 0 -- -- 64
2019-04-10 18:00:00 18.6 19 Norte 36 Norte 0 -- -- 65
2019-04-10 17:00:00 18.6 16 Noroeste 40 Noroeste 0 -- -- 64
2019-04-10 16:00:00 19 22 Noroeste 37 Noroeste 0 -- -- 61
2019-04-10 15:00:00 18.6 21 Norte 36 Norte 0 -- -- 61
2019-04-10 14:00:00 18.5 16 Norte 34 Norte 0 -- -- 62
2019-04-10 13:00:00 18.8 18 Noroeste 30 Noroeste 0 -- -- 57
2019-04-10 12:00:00 18.7 17 Norte 30 Norte 0 -- -- 57
2019-04-10 11:00:00 19.4 10 Norte 28 Norte 0 -- -- 61
2019-04-10 10:00:00 18.2 14 Norte 32 Norte 0 -- -- 56
2019-04-10 09:00:00 18 15 Norte 35 Norte 0 -- -- 63
2019-04-10 08:00:00 17.3 17 Norte 36 Norte 0 -- -- 64
2019-04-10 07:00:00 17.2 14 Norte 28 Noroeste 0 -- -- 64
2019-04-10 06:00:00 17 15 Noroeste 25 Norte 0 -- -- 61
2019-04-10 05:00:00 17 15 Noroeste 28 Noroeste 0 -- -- 63
2019-04-10 04:00:00 17 15 Norte 27 Norte 0 -- -- 62
2019-04-10 03:00:00 17.1 16 Norte 28 Norte 0 -- -- 63
2019-04-10 02:00:00 17.1 19 Norte 37 Norte 0 -- -- 65
2019-04-10 01:00:00 17.3 17 Norte 27 Noroeste 0 -- -- 65
2019-04-10 00:00:00 17.5 15 Norte 28 Norte 0 -- -- 64
2019-04-09 23:00:00 17.6 18 Norte 27 Norte 0 -- -- 65
2019-04-09 22:00:00 17.8 18 Norte 32 Norte 0 -- -- 65
2019-04-09 21:00:00 19 15 Norte 28 Norte 0 -- -- 67
2019-04-09 20:00:00 17.8 18 Norte 31 Norte 0 -- -- 68
2019-04-09 19:00:00 18.2 15 Norte 30 Norte 0 -- -- 69
2019-04-09 18:00:00 18.2 15 Norte 31 Nordeste 0 -- -- 72
2019-04-09 17:00:00 18.3 18 Norte 31 Norte 0 -- -- 73
2019-04-09 16:00:00 18.8 14 Nordeste 27 Nordeste 0 -- -- 73
2019-04-09 15:00:00 19 13 Norte 33 Norte 0 -- -- 68
2019-04-09 14:00:00 19.2 17 Norte 30 Nordeste 0 -- -- 72
2019-04-09 13:00:00 18.7 18 Norte 33 Norte 0 -- -- 74
2019-04-09 12:00:00 19.6 10 Noroeste 24 Norte 0 -- -- 72
2019-04-09 11:00:00 20.6 8 Norte 19 Nordeste 0 -- -- 63
2019-04-09 10:00:00 19.5 7 Oeste 32 Oeste 0 -- -- 68
2019-04-09 09:00:00 18.1 9 Noroeste 17 Noroeste 0 -- -- 72
2019-04-09 08:00:00 17.5 10 Oeste 17 Noroeste 0 -- -- 72
2019-04-09 07:00:00 17.3 9 Oeste 16 Oeste 0 -- -- 70
2019-04-09 06:00:00 17.4 6 Oeste 16 Noroeste 0 -- -- 70
2019-04-09 05:00:00 17.4 10 Noroeste 19 Noroeste 0 -- -- 70
2019-04-09 04:00:00 17.3 10 Noroeste 18 Oeste 0 -- -- 70
2019-04-09 03:00:00 17.3 9 Noroeste 18 Norte 0 -- -- 69
2019-04-09 02:00:00 17.7 10 Noroeste 24 Noroeste 0 -- -- 68
2019-04-09 01:00:00 17.8 17 Noroeste 28 Noroeste 0 -- -- 64
2019-04-09 00:00:00 17.9 17 Noroeste 25 Noroeste 0 -- -- 64
2019-04-08 23:00:00 18.1 14 Noroeste 26 Noroeste 0 -- -- 64
2019-04-08 22:00:00 18.3 11 Norte 26 Norte 0 -- -- 64
2019-04-08 21:00:00 19.6 13 Norte 25 Norte 0 -- -- 64
2019-04-08 20:00:00 18.4 12 Norte 28 Norte 0 -- -- 65
2019-04-08 19:00:00 18.8 16 Norte 26 Norte 0 -- -- 66
2019-04-08 18:00:00 21.7 11 Norte 32 Noroeste 0 -- -- 63
2019-04-08 17:00:00 20.5 16 Noroeste 33 Noroeste 0 -- -- 63
2019-04-08 16:00:00 19.2 21 Noroeste 39 Noroeste 0 -- -- 67
2019-04-08 15:00:00 20.1 14 Noroeste 34 Noroeste 0 -- -- 65
2019-04-08 14:00:00 19.3 17 Noroeste 39 Noroeste 0 -- -- 66
2019-04-08 13:00:00 20.8 14 Noroeste 30 Noroeste 0 -- -- 65
2019-04-08 12:00:00 19.9 7 Norte 25 Noroeste 0 -- -- 65
2019-04-08 11:00:00 18.8 16 Noroeste 23 Noroeste 0 -- -- 69
2019-04-08 10:00:00 16.8 9 Noroeste 27 Norte 0 -- -- 75
2019-04-08 09:00:00 15.1 18 Norte 40 Noroeste 0.2 -- -- 86
2019-04-08 08:00:00 17.4 8 Noroeste 23 Noroeste 0 -- -- 74
2019-04-08 07:00:00 17.2 10 Noroeste 23 Noroeste 0 -- -- 76
2019-04-08 06:00:00 17.5 13 Noroeste 27 Noroeste 0 -- -- 75
2019-04-08 05:00:00 17.5 10 Noroeste 21 Noroeste 0 -- -- 74
2019-04-08 04:00:00 17.6 12 Noroeste 23 Noroeste 0 -- -- 74
2019-04-08 03:00:00 17.5 12 Noroeste 24 Noroeste 0 -- -- 74
2019-04-08 02:00:00 17.6 10 Noroeste 22 Noroeste 0 -- -- 74
2019-04-08 01:00:00 17.5 10 Norte 24 Oeste 0 -- -- 76
2019-04-08 00:00:00 17.7 12 Noroeste 22 Norte 0 -- -- 72
2019-04-07 23:00:00 17.8 13 Noroeste 24 Noroeste 0 -- -- 72
2019-04-07 22:00:00 17.9 13 Noroeste 25 Noroeste 0 -- -- 72
2019-04-07 21:00:00 18 16 Noroeste 27 Noroeste 0 -- -- 72
2019-04-07 20:00:00 18 15 Noroeste 30 Noroeste 0 -- -- 69
2019-04-07 19:00:00 18.7 15 Noroeste 33 Noroeste 0 -- -- 69
2019-04-07 18:00:00 18.3 25 Noroeste 40 Noroeste 0 -- -- 69
2019-04-07 17:00:00 19.5 19 Noroeste 37 Norte 0 -- -- 67
2019-04-07 16:00:00 18.5 25 Norte 42 Noroeste 0 -- -- 68
2019-04-07 15:00:00 19 21 Noroeste 37 Noroeste 0 -- -- 67
2019-04-07 14:00:00 18.7 22 Noroeste 39 Noroeste 0 -- -- 68
2019-04-07 13:00:00 18.4 18 Noroeste 39 Oeste 0 -- -- 64
2019-04-07 12:00:00 18.6 17 Noroeste 36 Noroeste 0 -- -- 65
2019-04-07 11:00:00 18.2 19 Noroeste 31 Noroeste 0 -- -- 64
2019-04-07 10:00:00 18.1 10 Noroeste 21 Noroeste 0 -- -- 65
2019-04-07 09:00:00 18 11 Oeste 23 Noroeste 0 -- -- 66
2019-04-07 08:00:00 15.9 9 Oeste 17 Oeste 0 -- -- 69
2019-04-07 07:00:00 15.7 9 Oeste 20 Oeste 0 -- -- 69
2019-04-07 06:00:00 15.9 13 Oeste 18 Oeste 0 -- -- 69
2019-04-07 05:00:00 16 9 Oeste 16 Oeste 0 -- -- 69
2019-04-07 04:00:00 16.1 9 Oeste 16 Noroeste 0 -- -- 69
2019-04-07 03:00:00 16.9 10 Noroeste 18 Noroeste 0 -- -- 67
2019-04-07 02:00:00 16.7 10 Noroeste 19 Noroeste 0 -- -- 67
2019-04-07 01:00:00 17 10 Noroeste 22 Norte 0 -- -- 67
2019-04-07 00:00:00 17 11 Noroeste 21 Noroeste 0 -- -- 67
2019-04-06 23:00:00 17.1 11 Noroeste 23 Oeste 0 -- -- 67
2019-04-06 22:00:00 17.2 18 Noroeste 31 Noroeste 0 -- -- 64
2019-04-06 21:00:00 17.2 18 Noroeste 31 Norte 0 -- -- 65
2019-04-06 20:00:00 17.4 23 Noroeste 42 Noroeste 0 -- -- 67
2019-04-06 19:00:00 17.7 19 Noroeste 46 Noroeste 0 -- -- 60
2019-04-06 18:00:00 18.1 24 Noroeste 42 Noroeste 0 -- -- 58
2019-04-06 17:00:00 18 21 Noroeste 39 Noroeste 0 -- -- 59
2019-04-06 16:00:00 18.1 22 Noroeste 46 Norte 0 -- -- 60
2019-04-06 15:00:00 17.8 26 Noroeste 45 Noroeste 0 -- -- 62
2019-04-06 14:00:00 18.8 24 Noroeste 55 Noroeste 0 -- -- 61
2019-04-06 13:00:00 18.7 22 Noroeste 50 Noroeste 0 -- -- 61
2019-04-06 12:00:00 17.7 28 Norte 48 Noroeste 0 -- -- 62
2019-04-06 11:00:00 17 22 Noroeste 40 Noroeste 0 -- -- 64
2019-04-06 10:00:00 17.5 21 Noroeste 43 Noroeste 0 -- -- 62
2019-04-06 09:00:00 17.1 21 Noroeste 43 Noroeste 0 -- -- 63
2019-04-06 08:00:00 16.6 21 Noroeste 40 Noroeste 0 -- -- 68
2019-04-06 07:00:00 16.4 25 Noroeste 37 Noroeste 0 -- -- 68
2019-04-06 06:00:00 16.7 17 Noroeste 44 Noroeste 0 -- -- 63
2019-04-06 05:00:00 16.8 24 Noroeste 42 Noroeste 0 -- -- 60
2019-04-06 04:00:00 16.7 26 Noroeste 39 Noroeste 0 -- -- 67
2019-04-06 03:00:00 16.8 24 Noroeste 38 Noroeste 0 -- -- 65
2019-04-06 02:00:00 17.1 20 Noroeste 39 Noroeste 0 -- -- 64
2019-04-06 01:00:00 17.1 17 Noroeste 42 Noroeste 0 -- -- 68
2019-04-06 00:00:00 17 24 Noroeste 47 Norte 0 -- -- 68
2019-04-05 23:00:00 17.4 24 Noroeste 49 Noroeste 0 -- -- 64
2019-04-05 22:00:00 18.4 26 Noroeste 54 Noroeste 0 -- -- 67
2019-04-05 21:00:00 17.6 26 Noroeste 51 Noroeste 0 -- -- 67
2019-04-05 20:00:00 17.7 27 Noroeste 55 Oeste 0 -- -- 67
2019-04-05 19:00:00 18.9 25 Noroeste 43 Noroeste 0 -- -- 68
2019-04-05 18:00:00 17.5 27 Noroeste 46 Noroeste 0 -- -- 71
2019-04-05 17:00:00 17.2 30 Noroeste 51 Oeste 0 -- -- 75
2019-04-05 16:00:00 19.7 30 Noroeste 56 Noroeste 0 -- -- 64
2019-04-05 15:00:00 18.1 30 Noroeste 51 Noroeste 0 -- -- 64
2019-04-05 14:00:00 18.2 28 Noroeste 53 Noroeste 0 -- -- 63
2019-04-05 13:00:00 18.1 28 Noroeste 49 Noroeste 0 -- -- 65
2019-04-05 12:00:00 17.8 26 Noroeste 43 Noroeste 0 -- -- 65
2019-04-05 11:00:00 18.2 21 Noroeste 36 Noroeste 0 -- -- 63
2019-04-05 10:00:00 17.4 18 Noroeste 33 Noroeste 0 -- -- 67
2019-04-05 09:00:00 17.1 18 Noroeste 35 Noroeste 0 -- -- 67
2019-04-05 08:00:00 17.6 19 Noroeste 33 Noroeste 0 -- -- 70
2019-04-05 07:00:00 16.6 17 Noroeste 30 Noroeste 0 -- -- 70
2019-04-05 06:00:00 16.1 10 Noroeste 28 Noroeste 0 -- -- 74
2019-04-05 05:00:00 15.6 12 Noroeste 31 Noroeste 0 -- -- 75
2019-04-05 04:00:00 14.8 21 Noroeste 44 Noroeste 0.1 -- -- 80
2019-04-05 03:00:00 16.3 17 Noroeste 36 Norte 0 -- -- 74
2019-04-05 02:00:00 16.6 21 Noroeste 33 Norte 0 -- -- 73
2019-04-05 01:00:00 16.4 14 Norte 28 Noroeste 0 -- -- 73
2019-04-05 00:00:00 17 13 Noroeste 32 Norte 0 -- -- 69
2019-04-04 23:00:00 17.1 17 Noroeste 33 Noroeste 0 -- -- 69
2019-04-04 22:00:00 17.2 18 Noroeste 40 Noroeste 0 -- -- 68
2019-04-04 21:00:00 17.2 24 Noroeste 39 Noroeste 0 -- -- 69
2019-04-04 20:00:00 17.6 18 Noroeste 40 Noroeste 0 -- -- 69
2019-04-04 19:00:00 17.7 21 Noroeste 34 Norte 0 -- -- 68
2019-04-04 18:00:00 17.9 18 Noroeste 39 Noroeste 0 -- -- 68
2019-04-04 17:00:00 18.2 20 Noroeste 41 Noroeste 0 -- -- 68
2019-04-04 16:00:00 18.9 21 Noroeste 43 Noroeste 0 -- -- 70
2019-04-04 15:00:00 18.2 23 Noroeste 37 Noroeste 0 -- -- 69
2019-04-04 14:00:00 19.2 20 Noroeste 37 Noroeste 0 -- -- 67
2019-04-04 13:00:00 17.8 21 Noroeste 36 Noroeste 0 -- -- 68
2019-04-04 12:00:00 17.3 20 Noroeste 31 Noroeste 0 -- -- 73
2019-04-04 11:00:00 18 11 Noroeste 24 Oeste 0 -- -- 69
2019-04-04 10:00:00 16 12 Oeste 31 Noroeste 0 -- -- 74
2019-04-04 09:00:00 15.9 12 Oeste 35 Oeste 0 -- -- 75
2019-04-04 08:00:00 15.9 14 Oeste 27 Oeste 0 -- -- 74
2019-04-04 07:00:00 14.5 17 Oeste 29 Oeste 0.6 -- -- 75
2019-04-04 06:00:00 15.1 13 Oeste 19 Oeste 0 -- -- 75
2019-04-04 05:00:00 15 10 Oeste 26 Noroeste 0.1 -- -- 71
2019-04-04 04:00:00 15.4 10 Noroeste 29 Oeste 0.4 -- -- 76
2019-04-04 03:00:00 16.2 10 Oeste 32 Noroeste 0.4 -- -- 74
2019-04-04 02:00:00 17.2 9 Noroeste 23 Noroeste 0 -- -- 70
2019-04-04 01:00:00 17.3 9 Noroeste 33 Noroeste 0 -- -- 70
2019-04-04 00:00:00 17.6 20 Noroeste 42 Noroeste 0 -- -- 70
2019-04-03 23:00:00 17.7 29 Noroeste 43 Noroeste 0 -- -- 72
2019-04-03 22:00:00 18 17 Noroeste 33 Noroeste 0 -- -- 70
2019-04-03 21:00:00 18.2 13 Noroeste 24 Noroeste 0 -- -- 67
2019-04-03 20:00:00 19.1 9 Noroeste 18 Noroeste 0 -- -- 60
2019-04-03 19:00:00 19.3 14 Noroeste 28 Noroeste 0 -- -- 64
2019-04-03 18:00:00 19.7 13 Noroeste 26 Noroeste 0 -- -- 65
2019-04-03 17:00:00 19.7 16 Noroeste 34 Noroeste 0 -- -- 64
2019-04-03 16:00:00 19.2 20 Noroeste 35 Noroeste 0 -- -- 66
2019-04-03 15:00:00 18.7 19 Noroeste 35 Noroeste 0 -- -- 69
2019-04-03 14:00:00 17.8 6 Norte 24 Noroeste 4.6 -- -- 76
2019-04-03 13:00:00 17 21 Noroeste 37 Noroeste 0.4 -- -- 75
2019-04-03 12:00:00 16.1 17 Norte 24 Norte 3.4 -- -- 82
2019-04-03 11:00:00 16.5 14 Norte 24 Norte 0.6 -- -- 80
2019-04-03 10:00:00 17.3 9 Noroeste 24 Norte 0.1 -- -- 80
2019-04-03 09:00:00 17.2 4 Noroeste 18 Oeste 0 -- -- 80
2019-04-03 08:00:00 16.8 4 Noroeste 13 Noroeste 0 -- -- 81
2019-04-03 07:00:00 16.7 5 Sudoeste 17 Noroeste 0 -- -- 83
2019-04-03 06:00:00 17.9 8 Norte 16 Noroeste 0 -- -- 82
2019-04-03 05:00:00 16.6 6 Noroeste 19 Oeste 0 -- -- 83
2019-04-03 04:00:00 16.8 13 Noroeste 26 Oeste 0 -- -- 81
2019-04-03 03:00:00 17.3 10 Noroeste 20 Oeste 0 -- -- 79
2019-04-03 02:00:00 17.3 10 Noroeste 19 Noroeste 0 -- -- 79
2019-04-03 01:00:00 17.3 8 Noroeste 17 Noroeste 0.3 -- -- 81
2019-04-03 00:00:00 17.4 13 Noroeste 23 Noroeste 0 -- -- 80
2019-04-02 23:00:00 19.1 16 Noroeste 27 Noroeste 0 -- -- 76
2019-04-02 22:00:00 17.8 18 Noroeste 29 Noroeste 0 -- -- 75
2019-04-02 21:00:00 18.2 12 Noroeste 26 Noroeste 0 -- -- 75
2019-04-02 20:00:00 18.2 14 Noroeste 39 Noroeste 0 -- -- 75
2019-04-02 19:00:00 19.2 20 Noroeste 40 Noroeste 0 -- -- 74
2019-04-02 18:00:00 18.3 23 Noroeste 37 Noroeste 0 -- -- 75
2019-04-02 17:00:00 19.3 20 Noroeste 36 Noroeste 0 -- -- 72
2019-04-02 16:00:00 19.9 23 Noroeste 32 Noroeste 0 -- -- 70
2019-04-02 15:00:00 19.7 8 Este 12 Este 0 -- -- 68
2019-04-02 14:00:00 22 5 Sudeste 17 Sudeste 0 -- -- 63
2019-04-02 13:00:00 23.1 8 Sudeste 26 Sudeste 0 -- -- 62
2019-04-02 12:00:00 21.3 15 Sudeste 31 Sudeste 0 -- -- 65
2019-04-02 11:00:00 21.3 14 Sudeste 24 Sudeste 0 -- -- 65
2019-04-02 10:00:00 19.5 18 Sudeste 21 Sudeste 0 -- -- 70
2019-04-02 09:00:00 18.3 12 Sur 18 Sur 0 -- -- 74
2019-04-02 08:00:00 17.4 9 Sur 15 Sur 0 -- -- 74
2019-04-02 07:00:00 17.3 6 Sur 14 Sur 0 -- -- 75
2019-04-02 06:00:00 17.3 7 Sur 14 Sur 0 -- -- 75
2019-04-02 05:00:00 17.3 7 Sur 10 Sur 0 -- -- 75
2019-04-02 04:00:00 17.4 3 Oeste 6 Oeste 0 -- -- 75
2019-04-02 03:00:00 17 5 Oeste 8 Oeste 0 -- -- 74
2019-04-02 02:00:00 17 8 Oeste 12 Oeste 0 -- -- 74
2019-04-02 01:00:00 17.3 0 Calma 7 Sur 0 -- -- 73
2019-04-02 00:00:00 17.6 5 Sur 8 Sur 0 -- -- 73
2019-04-01 23:00:00 17.8 7 Sudeste 11 Sudeste 0 -- -- 73
2019-04-01 22:00:00 18 3 Este 9 Sudeste 0 -- -- 73
2019-04-01 21:00:00 18.1 3 Sudeste 7 Sudeste 0 -- -- 72
2019-04-01 20:00:00 18.5 3 Sudeste 8 Sur 0 -- -- 72
2019-04-01 19:00:00 18 5 Sur 15 Sur 0 -- -- 72
2019-04-01 18:00:00 18.3 10 Sur 15 Sur 0 -- -- 70
2019-04-01 17:00:00 19 9 Sudeste 15 Sudeste 0 -- -- 69
2019-04-01 16:00:00 20.5 7 Sudeste 13 Sudeste 0 -- -- 64
2019-04-01 15:00:00 22.2 3 Sudeste 12 Este 0 -- -- 62
2019-04-01 14:00:00 18.9 6 Este 14 Este 0 -- -- 68
2019-04-01 13:00:00 19.7 9 Nordeste 19 Norte 0 -- -- 67
2019-04-01 12:00:00 19.2 13 Nordeste 19 Nordeste 0 -- -- 67
2019-04-01 11:00:00 20.8 10 Nordeste 20 Norte 0 -- -- 64
2019-04-01 10:00:00 18.2 8 Noroeste 15 Noroeste 0 -- -- 69
2019-04-01 09:00:00 17.9 7 Oeste 17 Oeste 0 -- -- 69
2019-04-01 08:00:00 16.2 12 Oeste 17 Oeste 0 -- -- 70
2019-04-01 07:00:00 16.4 8 Oeste 20 Oeste 0 -- -- 73
2019-04-01 06:00:00 17.7 11 Oeste 21 Oeste 0 -- -- 74
2019-04-01 05:00:00 16.7 10 Oeste 17 Noroeste 0 -- -- 75
2019-04-01 04:00:00 17.3 8 Noroeste 18 Noroeste 0 -- -- 74
2019-04-01 03:00:00 16.8 9 Oeste 16 Oeste 0 -- -- 75
2019-04-01 02:00:00 17.4 8 Oeste 19 Oeste 0 -- -- 73
2019-04-01 01:00:00 17.3 10 Oeste 19 Oeste 0 -- -- 70
2019-04-01 00:00:00 17.3 5 Oeste 16 Noroeste 0 -- -- 69
2019-03-31 23:00:00 17.6 6 Oeste 18 Noroeste 0 -- -- 69
2019-03-31 22:00:00 17.9 12 Noroeste 20 Noroeste 0 -- -- 69
2019-03-31 21:00:00 18 11 Noroeste 21 Noroeste 0 -- -- 68
2019-03-31 20:00:00 18.2 14 Noroeste 23 Noroeste 0 -- -- 66
2019-03-31 19:00:00 18.6 11 Noroeste 23 Noroeste 0 -- -- 63
2019-03-31 18:00:00 19.9 7 Noroeste 27 Nordeste 0 -- -- 61
2019-03-31 17:00:00 20 6 Nordeste 14 Nordeste 0 -- -- 59
2019-03-31 16:00:00 20.6 3 Este 17 Este 0 -- -- 58
2019-03-31 15:00:00 22.7 3 Sudeste 15 Sudeste 0 -- -- 56
2019-03-31 14:00:00 23.7 5 Sudeste 19 Sudeste 0 -- -- 53
2019-03-31 13:00:00 22.6 13 Sudeste 21 Sudeste 0 -- -- 54
2019-03-31 12:00:00 22.9 9 Sudeste 20 Sudeste 0 -- -- 57
2019-03-31 11:00:00 21.3 5 Este 10 Sur 0 -- -- 54
2019-03-31 10:00:00 19.6 6 Sur 11 Sur 0 -- -- 58
2019-03-31 09:00:00 20.9 0 Calma 9 Oeste 0 -- -- 54
2019-03-31 08:00:00 16.4 5 Oeste 12 Sudoeste 0 -- -- 59
2019-03-31 07:00:00 16.2 6 Sudoeste 12 Oeste 0 -- -- 62
2019-03-31 06:00:00 16.2 6 Oeste 17 Oeste 0 -- -- 64
2019-03-31 05:00:00 16.1 5 Oeste 19 Noroeste 0 -- -- 69
2019-03-31 04:00:00 16.3 12 Noroeste 21 Noroeste 0 -- -- 69
2019-03-31 00:00:00 16.1 9 Oeste 15 Oeste 0 -- -- 69
2019-03-30 23:00:00 16.8 9 Oeste 12 Oeste 0 -- -- 68
2019-03-30 22:00:00 17.5 8 Noroeste 19 Noroeste 0 -- -- 65
2019-03-30 21:00:00 17.7 13 Noroeste 21 Noroeste 0 -- -- 66
2019-03-30 20:00:00 19 11 Noroeste 48 Noroeste 0 -- -- 65
2019-03-30 19:00:00 17.9 15 Norte 27 Noroeste 0 -- -- 68
2019-03-30 18:00:00 18.8 13 Noroeste 23 Norte 0 -- -- 65
2019-03-30 17:00:00 19.2 9 Norte 26 Nordeste 0 -- -- 65
2019-03-30 16:00:00 19.8 9 Nordeste 25 Nordeste 0 -- -- 66
2019-03-30 15:00:00 19.7 6 Norte 27 Noroeste 0 -- -- 61
2019-03-30 14:00:00 19.8 12 Norte 26 Oeste 0 -- -- 62
2019-03-30 13:00:00 18.3 17 Noroeste 30 Noroeste 0 -- -- 69
2019-03-30 12:00:00 18.7 9 Norte 22 Nordeste 0 -- -- 69
2019-03-30 11:00:00 19.1 7 Norte 22 Nordeste 0 -- -- 71
2019-03-30 10:00:00 17.1 7 Oeste 15 Noroeste 0 -- -- 73
2019-03-30 09:00:00 14.5 8 Noroeste 29 Norte 0.7 -- -- 81
2019-03-30 08:00:00 16 11 Noroeste 20 Noroeste 0 -- -- 74
2019-03-30 07:00:00 15.8 9 Oeste 19 Oeste 0 -- -- 73
2019-03-30 06:00:00 15.9 10 Oeste 15 Oeste 0 -- -- 72
2019-03-30 05:00:00 16.3 6 Oeste 8 Oeste 0 -- -- 74
2019-03-30 04:00:00 16.5 6 Sudoeste 9 Sudoeste 0 -- -- 76
2019-03-30 03:00:00 16.5 5 Oeste 13 Oeste 0 -- -- 75
2019-03-30 02:00:00 16.1 11 Oeste 16 Oeste 0 -- -- 76
2019-03-30 01:00:00 16.1 11 Oeste 17 Noroeste 0 -- -- 76
2019-03-30 00:00:00 16.5 10 Oeste 19 Noroeste 0 -- -- 78
2019-03-29 23:00:00 16.5 14 Noroeste 28 Oeste 0 -- -- 78
2019-03-29 22:00:00 16.7 12 Noroeste 26 Oeste 0 -- -- 76
2019-03-29 21:00:00 17 9 Noroeste 19 Noroeste 0 -- -- 76
2019-03-29 20:00:00 18.5 9 Norte 17 Noroeste 0 -- -- 71
2019-03-29 19:00:00 19.4 0 Calma 10 Sudeste 0 -- -- 71
2019-03-29 18:00:00 18.7 9 Sudeste 15 Sudeste 0 -- -- 73
2019-03-29 17:00:00 19.8 8 Sudeste 16 Sudeste 0 -- -- 69
2019-03-29 16:00:00 19.2 8 Sudeste 15 Sudeste 0 -- -- 70
2019-03-29 15:00:00 19.3 5 Sudeste 18 Sur 0.1 -- -- 73
2019-03-29 14:00:00 19.5 9 Sudeste 16 Sudeste 0 -- -- 72
2019-03-29 13:00:00 19.6 3 Este 15 Este 0 -- -- 69
2019-03-29 12:00:00 22.4 5 Este 18 Este 0 -- -- 62
2019-03-29 11:00:00 22.5 0 Calma 11 Sudeste 0 -- -- 61
2019-03-29 10:00:00 23.6 4 Este 11 Este 0 -- -- 59
2019-03-29 09:00:00 22.3 4 Sudeste 9 Sur 0 -- -- 64
2019-03-29 08:00:00 18.7 2 Sudoeste 9 Sudoeste 0 -- -- 74
2019-03-29 07:00:00 16.6 6 Sudoeste 10 Sudoeste 0 -- -- 78
2019-03-29 06:00:00 16.2 6 Oeste 11 Oeste 0 -- -- 76
2019-03-29 05:00:00 16.4 3 Oeste 7 Oeste 0 -- -- 78
2019-03-29 04:00:00 16.7 5 Oeste 8 Noroeste 0 -- -- 78
2019-03-29 03:00:00 16.7 4 Noroeste 10 Noroeste 0 -- -- 78
2019-03-29 02:00:00 16.5 6 Noroeste 10 Oeste 0 -- -- 78
2019-03-29 01:00:00 17.2 0 Calma 9 Nordeste 0 -- -- 76
2019-03-29 00:00:00 17.6 6 Nordeste 12 Este 0 -- -- 76
2019-03-28 23:00:00 17.6 7 Nordeste 11 Nordeste 0 -- -- 75
2019-03-28 22:00:00 17.4 0 Calma 12 Oeste 0 -- -- 78
2019-03-28 21:00:00 17.3 5 Noroeste 11 Oeste 0 -- -- 78
2019-03-28 20:00:00 17.6 4 Oeste 9 Norte 0 -- -- 76
2019-03-28 19:00:00 17.8 7 Nordeste 18 Nordeste 0.2 -- -- 76
2019-03-28 18:00:00 18.2 11 Nordeste 18 Nordeste 0 -- -- 73
2019-03-28 17:00:00 18.7 8 Nordeste 15 Nordeste 0 -- -- 73
2019-03-28 16:00:00 20 8 Nordeste 14 Nordeste 0 -- -- 72
2019-03-28 15:00:00 18.7 9 Nordeste 16 Nordeste 0 -- -- 71
2019-03-28 14:00:00 20.3 10 Este 18 Este 0 -- -- 71
2019-03-28 13:00:00 18.8 12 Este 17 Este 0 -- -- 70
2019-03-28 12:00:00 19 11 Nordeste 17 Este 0 -- -- 69
2019-03-28 11:00:00 19.2 10 Este 16 Nordeste 0 -- -- 70
2019-03-28 10:00:00 19.8 7 Nordeste 14 Nordeste 0 -- -- 67
2019-03-28 09:00:00 19.2 5 Norte 10 Oeste 0 -- -- 70
2019-03-28 08:00:00 17.3 6 Oeste 15 Oeste 0 -- -- 74
2019-03-28 07:00:00 17.4 11 Oeste 15 Oeste 0 -- -- 74
2019-03-28 06:00:00 16.7 8 Oeste 13 Noroeste 0 -- -- 74
2019-03-28 05:00:00 16.7 10 Noroeste 17 Oeste 0 -- -- 73
2019-03-28 04:00:00 16.6 11 Oeste 17 Oeste 0 -- -- 72
2019-03-28 03:00:00 16.5 11 Oeste 16 Oeste 0 -- -- 73
2019-03-28 02:00:00 16.8 12 Oeste 17 Oeste 0 -- -- 74
2019-03-28 01:00:00 17.1 8 Oeste 13 Oeste 0 -- -- 73
2019-03-28 00:00:00 17.8 9 Norte 13 Norte 0 -- -- 71
2019-03-27 23:00:00 18 8 Noroeste 17 Noroeste 0 -- -- 72
2019-03-27 22:00:00 18.1 12 Noroeste 22 Norte 0 -- -- 72
2019-03-27 21:00:00 18.7 15 Norte 24 Norte 0 -- -- 71
2019-03-27 20:00:00 18.2 14 Noroeste 23 Noroeste 0 -- -- 72
2019-03-27 19:00:00 18.3 12 Noroeste 26 Norte 0 -- -- 71
2019-03-27 18:00:00 18.4 17 Norte 24 Norte 0 -- -- 70
2019-03-27 17:00:00 18.3 15 Norte 24 Norte 0 -- -- 70
2019-03-27 16:00:00 19.1 11 Norte 23 Nordeste 0 -- -- 68
2019-03-27 15:00:00 19 13 Norte 29 Norte 0 -- -- 72
2019-03-27 14:00:00 20.3 17 Norte 27 Noroeste 0 -- -- 68
2019-03-27 13:00:00 21 15 Noroeste 33 Nordeste 0 -- -- 67
2019-03-27 12:00:00 19.5 18 Noroeste 32 Noroeste 0 -- -- 69
2019-03-27 11:00:00 18.4 19 Noroeste 32 Noroeste 0 -- -- 70
2019-03-27 10:00:00 18.6 18 Noroeste 33 Noroeste 0 -- -- 74
2019-03-27 09:00:00 19.4 19 Noroeste 29 Noroeste 0 -- -- 76
2019-03-27 08:00:00 18 14 Noroeste 23 Noroeste 0 -- -- 78
2019-03-27 07:00:00 17.5 9 Noroeste 20 Noroeste 0 -- -- 79
2019-03-27 06:00:00 17.6 10 Noroeste 21 Noroeste 0 -- -- 76
2019-03-27 05:00:00 17.5 6 Noroeste 28 Noroeste 0 -- -- 78
2019-03-27 04:00:00 17.6 11 Noroeste 22 Noroeste 0 -- -- 78
2019-03-27 03:00:00 17.7 11 Noroeste 25 Oeste 0 -- -- 75
2019-03-27 02:00:00 17.6 14 Noroeste 27 Noroeste 0 -- -- 73
2019-03-27 01:00:00 17.5 9 Oeste 25 Oeste 0 -- -- 72
2019-03-27 00:00:00 17.7 15 Noroeste 23 Oeste 0 -- -- 72
2019-03-26 23:00:00 17.7 10 Noroeste 25 Noroeste 0 -- -- 72
2019-03-26 22:00:00 17.5 8 Noroeste 18 Oeste 0 -- -- 73
2019-03-26 21:00:00 18 6 Noroeste 21 Noroeste 0 -- -- 73
2019-03-26 20:00:00 18.3 10 Noroeste 19 Noroeste 0 -- -- 70
2019-03-26 19:00:00 18.1 10 Noroeste 27 Noroeste 0 -- -- 69
2019-03-26 18:00:00 18.4 19 Noroeste 30 Noroeste 0 -- -- 69
2019-03-26 17:00:00 19.3 14 Noroeste 24 Noroeste 0 -- -- 64
2019-03-26 16:00:00 21.7 8 Norte 24 Oeste 0 -- -- 62
2019-03-26 15:00:00 19.6 18 Norte 27 Norte 0 -- -- 66
2019-03-26 14:00:00 19.2 9 Noroeste 27 Noroeste 0 -- -- 67
2019-03-26 13:00:00 18.7 10 Noroeste 23 Noroeste 0 -- -- 72
2019-03-26 12:00:00 15.7 14 Noroeste 33 Noroeste 0.7 -- -- 76
2019-03-26 11:00:00 16.8 18 Noroeste 33 Noroeste 0.4 -- -- 76
2019-03-26 10:00:00 17.5 16 Noroeste 31 Noroeste 0 -- -- 74
2019-03-26 09:00:00 18.4 12 Noroeste 22 Noroeste 0 -- -- 69
2019-03-26 08:00:00 17.1 8 Noroeste 22 Noroeste 0 -- -- 73
2019-03-26 07:00:00 15.4 10 Oeste 24 Noroeste 0 -- -- 75
2019-03-26 06:00:00 15.7 10 Oeste 23 Noroeste 0 -- -- 75
2019-03-26 05:00:00 15.4 10 Oeste 16 Oeste 0 -- -- 74
2019-03-26 04:00:00 15.4 6 Oeste 20 Oeste 0 -- -- 76
2019-03-26 03:00:00 15.6 8 Oeste 15 Oeste 0 -- -- 76
2019-03-26 02:00:00 15.7 9 Oeste 15 Oeste 0 -- -- 76
2019-03-26 01:00:00 15.9 7 Oeste 17 Oeste 0 -- -- 79
2019-03-26 00:00:00 16.1 6 Oeste 15 Noroeste 0 -- -- 79
2019-03-25 23:00:00 16 3 Sudoeste 13 Sur 0 -- -- 80
2019-03-25 22:00:00 16 7 Sur 29 Sur 0 -- -- 81
2019-03-25 21:00:00 16.4 20 Sur 33 Sudeste 0 -- -- 81
2019-03-25 20:00:00 17.6 16 Sur 36 Sur 0 -- -- 79
2019-03-25 19:00:00 16.6 35 Sudeste 42 Sudeste 0 -- -- 78
2019-03-25 18:00:00 17.4 18 Sudeste 31 Sudeste 0 -- -- 74
2019-03-25 17:00:00 17.1 10 Sur 13 Sur 0.2 -- -- 75
2019-03-25 16:00:00 15.6 3 Norte 14 Este 3.2 -- -- 78
2019-03-25 15:00:00 17.6 5 Norte 15 Nordeste 0 -- -- 69
2019-03-25 14:00:00 18.3 6 Nordeste 17 Nordeste 0 -- -- 67
2019-03-25 13:00:00 18.8 11 Este 21 Este 0 -- -- 71
2019-03-25 12:00:00 21.1 6 Este 17 Este 0 -- -- 64
2019-03-25 11:00:00 20.9 5 Sudeste 11 Este 0 -- -- 62
2019-03-25 10:00:00 17.9 2 Sudeste 17 Sudeste 0 -- -- 72
2019-03-25 09:00:00 16.9 5 Sudeste 15 Sudeste 0 -- -- 74
2019-03-25 08:00:00 17.4 6 Sur 10 Sur 0 -- -- 72
2019-03-25 07:00:00 15.9 4 Sudeste 6 Sudeste 0 -- -- 73
2019-03-25 06:00:00 17 4 Sur 12 Sur 0 -- -- 73
2019-03-25 05:00:00 16 10 Sur 13 Sur 0 -- -- 75
2019-03-25 04:00:00 16.2 4 Sur 9 Sur 0 -- -- 75
2019-03-25 03:00:00 16.3 7 Sudoeste 10 Sudoeste 0 -- -- 75
2019-03-25 02:00:00 16.3 6 Sur 12 Sur 0 -- -- 75
2019-03-25 01:00:00 16.5 6 Sur 14 Sur 0 -- -- 75
2019-03-25 00:00:00 16.7 6 Sur 9 Sur 0 -- -- 74
2019-03-24 23:00:00 17.2 2 Sudeste 7 Este 0 -- -- 73
2019-03-24 22:00:00 17.6 3 Este 8 Este 0 -- -- 72
2019-03-24 21:00:00 17.6 3 Este 9 Norte 0 -- -- 72
2019-03-24 20:00:00 18.7 5 Norte 13 Nordeste 0 -- -- 70
2019-03-24 19:00:00 17.9 6 Nordeste 15 Noroeste 0 -- -- 69
2019-03-24 18:00:00 18.1 5 Noroeste 18 Noroeste 0 -- -- 68
2019-03-24 17:00:00 18.1 7 Nordeste 22 Nordeste 0 -- -- 68
2019-03-24 16:00:00 17.9 10 Nordeste 17 Nordeste 0 -- -- 67
2019-03-24 15:00:00 18.5 9 Nordeste 20 Nordeste 0 -- -- 65
2019-03-24 14:00:00 20.9 9 Nordeste 21 Nordeste 0 -- -- 62
2019-03-24 13:00:00 20 8 Nordeste 25 Nordeste 0 -- -- 62
2019-03-24 12:00:00 19.1 13 Nordeste 25 Noroeste 0 -- -- 62
2019-03-24 11:00:00 18.2 14 Noroeste 22 Noroeste 0 -- -- 64
2019-03-24 10:00:00 19.3 7 Norte 17 Nordeste 0 -- -- 61
2019-03-24 09:00:00 20.1 4 Noroeste 16 Oeste 0 -- -- 59
2019-03-24 08:00:00 16.7 12 Oeste 15 Oeste 0 -- -- 67
2019-03-24 07:00:00 16.1 9 Oeste 18 Noroeste 0 -- -- 68
2019-03-24 06:00:00 16.4 10 Noroeste 22 Norte 0 -- -- 67
2019-03-24 05:00:00 16.5 9 Norte 19 Norte 0 -- -- 69
2019-03-24 04:00:00 16.8 11 Norte 21 Norte 0 -- -- 67
2019-03-24 03:00:00 16.6 11 Noroeste 20 Noroeste 0 -- -- 69
2019-03-24 02:00:00 16.8 12 Noroeste 22 Noroeste 0 -- -- 68
2019-03-24 01:00:00 16.8 12 Noroeste 23 Noroeste 0 -- -- 68
2019-03-24 00:00:00 17 13 Norte 23 Noroeste 0 -- -- 68
2019-03-23 23:00:00 17 14 Noroeste 28 Noroeste 0 -- -- 68
2019-03-23 22:00:00 17 16 Noroeste 33 Noroeste 0 -- -- 67
2019-03-23 21:00:00 18.5 22 Noroeste 37 Norte 0 -- -- 65
2019-03-23 20:00:00 17.2 19 Noroeste 38 Noroeste 0 -- -- 68
2019-03-23 19:00:00 17.4 18 Noroeste 38 Noroeste 0 -- -- 64
2019-03-23 18:00:00 17.5 22 Norte 32 Noroeste 0 -- -- 65
2019-03-23 17:00:00 18.2 18 Noroeste 35 Noroeste 0 -- -- 65
2019-03-23 16:00:00 17.8 17 Norte 32 Norte 0 -- -- 65
2019-03-23 15:00:00 17.9 18 Norte 29 Norte 0 -- -- 65
2019-03-23 14:00:00 18.8 19 Norte 35 Norte 0 -- -- 65
2019-03-23 13:00:00 17.9 18 Noroeste 34 Norte 0 -- -- 64
2019-03-23 12:00:00 17.9 23 Norte 36 Noroeste 0 -- -- 65
2019-03-23 11:00:00 18.3 23 Noroeste 40 Noroeste 0 -- -- 66
2019-03-23 10:00:00 19.1 19 Norte 36 Norte 0 -- -- 67
2019-03-23 09:00:00 17.3 22 Norte 38 Noroeste 0 -- -- 69
2019-03-23 08:00:00 17.1 16 Noroeste 33 Noroeste 0 -- -- 70
2019-03-23 07:00:00 17 18 Noroeste 32 Norte 0 -- -- 70
2019-03-23 06:00:00 16.9 21 Noroeste 33 Norte 0 -- -- 69
2019-03-23 05:00:00 16.8 20 Norte 33 Norte 0 -- -- 72
2019-03-23 04:00:00 16.9 19 Norte 32 Noroeste 0 -- -- 70
2019-03-23 03:00:00 17 16 Noroeste 26 Noroeste 0 -- -- 69
2019-03-23 02:00:00 17.2 16 Norte 30 Noroeste 0 -- -- 72
2019-03-23 01:00:00 17.3 18 Norte 31 Noroeste 0 -- -- 72
2019-03-23 00:00:00 17.4 17 Norte 32 Noroeste 0 -- -- 71
2019-03-22 23:00:00 17.4 23 Noroeste 35 Noroeste 0 -- -- 71
2019-03-22 22:00:00 17.6 15 Noroeste 33 Noroeste 0 -- -- 70
2019-03-22 21:00:00 17.7 19 Norte 36 Noroeste 0 -- -- 69
2019-03-22 20:00:00 17.7 14 Norte 38 Norte 0 -- -- 70
2019-03-22 19:00:00 17.9 14 Norte 35 Noroeste 0 -- -- 70
2019-03-22 18:00:00 17.9 20 Norte 39 Norte 0 -- -- 69
2019-03-22 17:00:00 17.8 23 Norte 35 Noroeste 0 -- -- 69
2019-03-22 16:00:00 18 19 Norte 31 Norte 0 -- -- 69
2019-03-22 15:00:00 18 17 Norte 34 Norte 0 -- -- 68
2019-03-22 14:00:00 18.3 15 Norte 28 Norte 0 -- -- 65
2019-03-22 13:00:00 17.8 13 Norte 23 Norte 0 -- -- 64
2019-03-22 12:00:00 18.4 12 Norte 27 Norte 0 -- -- 65
2019-03-22 11:00:00 17.5 14 Norte 31 Norte 0 -- -- 65
2019-03-22 10:00:00 17.3 17 Norte 31 Norte 0 -- -- 67
2019-03-22 09:00:00 16.9 18 Norte 35 Norte 0 -- -- 67
2019-03-22 08:00:00 16.7 21 Norte 36 Norte 0 -- -- 68
2019-03-22 07:00:00 16.7 13 Norte 32 Norte 0 -- -- 68
2019-03-22 06:00:00 16.6 16 Norte 33 Nordeste 0 -- -- 68
2019-03-22 05:00:00 16.7 14 Norte 30 Noroeste 0 -- -- 69
2019-03-22 04:00:00 16.7 13 Norte 25 Norte 0 -- -- 69
2019-03-22 03:00:00 16.9 16 Norte 27 Norte 0 -- -- 68
2019-03-22 02:00:00 17.1 13 Norte 26 Norte 0 -- -- 68
2019-03-22 01:00:00 17.1 12 Norte 23 Norte 0 -- -- 68
2019-03-22 00:00:00 17.2 12 Norte 30 Norte 0 -- -- 68
2019-03-21 23:00:00 17.4 12 Norte 23 Norte 0 -- -- 69
2019-03-21 22:00:00 18.6 14 Norte 27 Nordeste 0 -- -- 68
2019-03-21 21:00:00 17.5 12 Norte 26 Norte 0 -- -- 70
2019-03-21 20:00:00 18.8 12 Norte 30 Norte 0 -- -- 71
2019-03-21 19:00:00 17.7 15 Norte 30 Nordeste 0 -- -- 72
2019-03-21 18:00:00 19.4 13 Norte 29 Norte 0 -- -- 71
2019-03-21 17:00:00 18.4 13 Norte 28 Norte 0 -- -- 70
2019-03-21 16:00:00 19.2 11 Norte 27 Norte 0 -- -- 69
2019-03-21 15:00:00 18.3 17 Norte 26 Norte 0 -- -- 69
2019-03-21 14:00:00 18.5 14 Norte 23 Norte 0 -- -- 69
2019-03-21 13:00:00 21.2 7 Nordeste 21 Nordeste 0 -- -- 65
2019-03-21 12:00:00 18.6 9 Nordeste 22 Norte 0 -- -- 67
2019-03-21 11:00:00 20 10 Nordeste 25 Norte 0 -- -- 68
2019-03-21 10:00:00 18.4 11 Norte 23 Norte 0 -- -- 69
2019-03-21 09:00:00 18.2 12 Norte 24 Norte 0 -- -- 72
2019-03-21 08:00:00 18.1 9 Norte 19 Norte 0 -- -- 73
2019-03-21 07:00:00 18.2 11 Norte 20 Norte 0 -- -- 72
2019-03-21 06:00:00 17.2 13 Norte 23 Norte 0 -- -- 73
2019-03-21 05:00:00 17.4 9 Norte 17 Nordeste 0 -- -- 73
2019-03-21 04:00:00 17.1 9 Norte 19 Noroeste 0 -- -- 73
2019-03-21 03:00:00 17.2 12 Norte 20 Norte 0 -- -- 73
2019-03-21 02:00:00 17.1 13 Norte 21 Norte 0 -- -- 72
2019-03-21 01:00:00 17.3 10 Norte 23 Norte 0 -- -- 73
2019-03-21 00:00:00 17.5 13 Norte 24 Norte 0 -- -- 73